Fort Wayne International Airport
KFWA : now visible

Airfield :











YOU CAN JOIN US ON...

 
LOGIN :

Register | Disclaimer

   EN    FR    IT 

 









Legend :    VFR   Marginal VFR   IFR   Intensive IFR   Very Intensive IFR
Visi :
Ceiling :
>= 8 km
>= 3000ft
5 to 8 km
1000 to 3000 ft
1500m to 5 km
500 to 1000 ft
800 to 1500m
200 to 500 ft
< 800m
< 200 ft
Symbols :   Thunderstorms  Fog  Heavy snow  Heavy precipitations  Wind > 20 kt







- Airport Elevation : 814 ft
- IATA code : FWA


KFWA - Fort Wayne International

CURRENT METAR :
  • 181954Z 00000KT 10SM FEW055 FEW130 BKN230 27/22 A2993 RMK AO2 PRESFR SLP128 T02670217

EXPIRED METARs :
  • 181854Z 36006KT 10SM FEW038 SCT050 BKN120 BKN210 25/22 A2998 RMK AO2 LTG DSNT SE AND S TSE09 SLP146 TCU DSNT W T02500222
  • 181810Z 35008KT 10SM FEW026 FEW039 SCT050 OVC230 24/22 A2998 RMK AO2 LTG DSNT N-SE TSE09 OCNL LTGIC DSNT E-SE CB DSNT E-SE MOV E T02440222
  • 181754Z 34009KT 10SM TS FEW026 BKN039CB BKN070 OVC200 24/22 A2999 RMK AO2 LTG DSNT N-E RAB18E53 SLP149 OCNL LTGICCCCG VC NE-SE TS VC NE-SE MOV E P0039 60039 T02440222 10300 20228 53013
  • 181734Z 00000KT 4SM TSRA BR SCT022 BKN048 BKN060CB OVC200 23/22 A3000 RMK AO2 LTG DSNT N RAB18 OCNL LTGICCCCG OHD-NE-SE TS OHD-NE-SE MOV E P0039 T02330217
  • 181728Z COR 00000KT 1/2SM +TSRA FG FEW012 SCT022 BKN060CB OVC200 23/22 A2999 RMK AO2 LTG DSNT N AND NW RAB18 PRESRR OCNL LTGICCCCG ALQDS TS ALQDS MOV E P0023 T02280217

TAF KFWA
Valid from the 18 at 19:00 until the 19 at 18:00 UTC


181915Z 1819/1918 22007KT P6SM VCSH BKN100
TEMPO 1819/1821 -SHRA BKN020
FM190100 23009KT P6SM SCT200
FM191500 23010G19KT P6SM FEW250
KZAU FIR / North America



MET'MAP, your aeronautical weather chart ! - Copyright ORBIFLY December 2007 - Disclaimer

ORBIFLY MET'MAP TEAM :

Programming & Development : Alexandra Zaïnal
Concept & Development : Baudouin d'Aumeries
Co-Development & Prog : Marc-Olivier Méhu
Technical & hardware support : Manuel Goepfert

Contact : metmap@orbifly.com




SOURCES & CREDITS :

   NOAA       Earth
Advisory